sensor_id;sensor_type;location;lat;lon;timestamp;P1;durP1;ratioP1;P2;durP2;ratioP2
28447;SDS011;15675;52.870;-1.416;2022-10-13T00:00:24;15.02;;;7.85;;
28447;SDS011;15675;52.870;-1.416;2022-10-13T00:02:50;16.23;;;8.20;;
28447;SDS011;15675;52.870;-1.416;2022-10-13T00:05:16;16.20;;;8.55;;
28447;SDS011;15675;52.870;-1.416;2022-10-13T00:07:42;17.58;;;9.40;;
28447;SDS011;15675;52.870;-1.416;2022-10-13T00:10:07;21.67;;;9.35;;
28447;SDS011;15675;52.870;-1.416;2022-10-13T00:12:36;17.73;;;9.27;;
28447;SDS011;15675;52.870;-1.416;2022-10-13T00:15:03;14.50;;;8.75;;
28447;SDS011;15675;52.870;-1.416;2022-10-13T00:17:30;18.70;;;9.45;;
28447;SDS011;15675;52.870;-1.416;2022-10-13T00:19:56;17.65;;;8.50;;
28447;SDS011;15675;52.870;-1.416;2022-10-13T00:22:22;19.98;;;9.27;;
28447;SDS011;15675;52.870;-1.416;2022-10-13T00:24:51;15.77;;;8.15;;
28447;SDS011;15675;52.870;-1.416;2022-10-13T00:27:17;15.02;;;9.10;;
28447;SDS011;15675;52.870;-1.416;2022-10-13T00:29:43;16.80;;;8.80;;
28447;SDS011;15675;52.870;-1.416;2022-10-13T00:32:08;17.15;;;9.45;;
28447;SDS011;15675;52.870;-1.416;2022-10-13T00:34:35;20.27;;;10.07;;
28447;SDS011;15675;52.870;-1.416;2022-10-13T00:37:02;18.80;;;9.40;;
28447;SDS011;15675;52.870;-1.416;2022-10-13T00:39:28;24.23;;;9.73;;
28447;SDS011;15675;52.870;-1.416;2022-10-13T00:41:53;22.52;;;11.02;;
28447;SDS011;15675;52.870;-1.416;2022-10-13T00:47:24;21.40;;;10.32;;
28447;SDS011;15675;52.870;-1.416;2022-10-13T00:49:51;22.70;;;10.07;;
28447;SDS011;15675;52.870;-1.416;2022-10-13T00:52:19;16.67;;;10.55;;
28447;SDS011;15675;52.870;-1.416;2022-10-13T00:54:47;19.40;;;10.43;;
28447;SDS011;15675;52.870;-1.416;2022-10-13T00:57:14;18.85;;;10.55;;
28447;SDS011;15675;52.870;-1.416;2022-10-13T00:59:40;19.98;;;10.77;;
28447;SDS011;15675;52.870;-1.416;2022-10-13T01:02:06;27.45;;;10.15;;
28447;SDS011;15675;52.870;-1.416;2022-10-13T01:04:33;22.40;;;10.90;;
28447;SDS011;15675;52.870;-1.416;2022-10-13T01:07:02;18.05;;;10.20;;
28447;SDS011;15675;52.870;-1.416;2022-10-13T01:09:29;19.77;;;11.18;;
28447;SDS011;15675;52.870;-1.416;2022-10-13T01:12:05;21.75;;;11.10;;
28447;SDS011;15675;52.870;-1.416;2022-10-13T01:25:11;20.98;;;9.90;;
28447;SDS011;15675;52.870;-1.416;2022-10-13T01:30:30;27.88;;;10.30;;
28447;SDS011;15675;52.870;-1.416;2022-10-13T01:38:08;24.17;;;10.48;;
28447;SDS011;15675;52.870;-1.416;2022-10-13T01:41:18;17.42;;;10.02;;
28447;SDS011;15675;52.870;-1.416;2022-10-13T01:43:53;24.75;;;10.50;;
28447;SDS011;15675;52.870;-1.416;2022-10-13T01:46:26;20.55;;;10.85;;
28447;SDS011;15675;52.870;-1.416;2022-10-13T01:48:55;21.05;;;10.95;;
28447;SDS011;15675;52.870;-1.416;2022-10-13T01:51:25;21.70;;;11.13;;
28447;SDS011;15675;52.870;-1.416;2022-10-13T01:53:53;21.85;;;10.98;;
28447;SDS011;15675;52.870;-1.416;2022-10-13T01:56:19;22.33;;;11.15;;
28447;SDS011;15675;52.870;-1.416;2022-10-13T01:58:44;19.23;;;11.35;;
28447;SDS011;15675;52.870;-1.416;2022-10-13T02:06:43;22.75;;;11.68;;
28447;SDS011;15675;52.870;-1.416;2022-10-13T02:09:14;19.75;;;12.13;;
28447;SDS011;15675;52.870;-1.416;2022-10-13T02:11:48;21.92;;;12.90;;
28447;SDS011;15675;52.870;-1.416;2022-10-13T02:14:21;23.85;;;12.63;;
28447;SDS011;15675;52.870;-1.416;2022-10-13T02:16:50;23.50;;;13.15;;
28447;SDS011;15675;52.870;-1.416;2022-10-13T02:19:19;22.77;;;13.38;;
28447;SDS011;15675;52.870;-1.416;2022-10-13T02:21:46;24.80;;;13.40;;
28447;SDS011;15675;52.870;-1.416;2022-10-13T02:24:12;24.77;;;13.20;;
28447;SDS011;15675;52.870;-1.416;2022-10-13T02:26:38;24.95;;;13.57;;
28447;SDS011;15675;52.870;-1.416;2022-10-13T02:29:12;27.05;;;13.50;;
28447;SDS011;15675;52.870;-1.416;2022-10-13T02:31:40;24.25;;;13.95;;
28447;SDS011;15675;52.870;-1.416;2022-10-13T02:34:06;31.13;;;14.73;;
28447;SDS011;15675;52.870;-1.416;2022-10-13T02:36:32;26.85;;;15.18;;
28447;SDS011;15675;52.870;-1.416;2022-10-13T02:38:58;25.83;;;14.15;;
28447;SDS011;15675;52.870;-1.416;2022-10-13T02:41:24;24.58;;;13.18;;
28447;SDS011;15675;52.870;-1.416;2022-10-13T02:43:50;27.30;;;13.73;;
28447;SDS011;15675;52.870;-1.416;2022-10-13T02:46:15;24.45;;;13.63;;
28447;SDS011;15675;52.870;-1.416;2022-10-13T02:48:41;24.45;;;13.50;;
28447;SDS011;15675;52.870;-1.416;2022-10-13T02:51:07;25.35;;;14.45;;
28447;SDS011;15675;52.870;-1.416;2022-10-13T02:53:32;24.83;;;14.20;;
28447;SDS011;15675;52.870;-1.416;2022-10-13T02:55:58;23.00;;;13.65;;
28447;SDS011;15675;52.870;-1.416;2022-10-13T02:58:23;24.00;;;14.73;;
28447;SDS011;15675;52.870;-1.416;2022-10-13T03:00:49;27.42;;;15.27;;
28447;SDS011;15675;52.870;-1.416;2022-10-13T03:03:15;31.25;;;15.15;;
28447;SDS011;15675;52.870;-1.416;2022-10-13T03:05:40;28.20;;;14.63;;
28447;SDS011;15675;52.870;-1.416;2022-10-13T03:08:06;30.63;;;15.50;;
28447;SDS011;15675;52.870;-1.416;2022-10-13T03:10:31;31.85;;;15.32;;
28447;SDS011;15675;52.870;-1.416;2022-10-13T03:12:57;25.92;;;14.73;;
28447;SDS011;15675;52.870;-1.416;2022-10-13T03:15:23;26.85;;;14.88;;
28447;SDS011;15675;52.870;-1.416;2022-10-13T03:17:49;28.55;;;13.80;;
28447;SDS011;15675;52.870;-1.416;2022-10-13T03:20:14;27.55;;;15.20;;
28447;SDS011;15675;52.870;-1.416;2022-10-13T03:22:41;24.65;;;14.32;;
28447;SDS011;15675;52.870;-1.416;2022-10-13T03:25:06;26.40;;;15.35;;
28447;SDS011;15675;52.870;-1.416;2022-10-13T03:27:32;23.85;;;14.15;;
28447;SDS011;15675;52.870;-1.416;2022-10-13T03:29:58;26.70;;;15.23;;
28447;SDS011;15675;52.870;-1.416;2022-10-13T03:32:23;27.27;;;15.65;;
28447;SDS011;15675;52.870;-1.416;2022-10-13T03:34:49;29.40;;;14.13;;
28447;SDS011;15675;52.870;-1.416;2022-10-13T03:37:15;24.60;;;14.40;;
28447;SDS011;15675;52.870;-1.416;2022-10-13T03:39:41;25.38;;;14.95;;
28447;SDS011;15675;52.870;-1.416;2022-10-13T03:42:07;35.28;;;14.98;;
28447;SDS011;15675;52.870;-1.416;2022-10-13T03:44:33;25.98;;;15.07;;
28447;SDS011;15675;52.870;-1.416;2022-10-13T03:46:59;28.55;;;14.65;;
28447;SDS011;15675;52.870;-1.416;2022-10-13T03:49:24;31.05;;;16.13;;
28447;SDS011;15675;52.870;-1.416;2022-10-13T03:51:50;28.55;;;14.88;;
28447;SDS011;15675;52.870;-1.416;2022-10-13T03:54:15;35.03;;;16.25;;
28447;SDS011;15675;52.870;-1.416;2022-10-13T03:56:41;35.72;;;16.65;;
28447;SDS011;15675;52.870;-1.416;2022-10-13T03:59:09;27.25;;;15.40;;
28447;SDS011;15675;52.870;-1.416;2022-10-13T04:01:36;28.45;;;16.35;;
28447;SDS011;15675;52.870;-1.416;2022-10-13T04:04:03;31.98;;;16.60;;
28447;SDS011;15675;52.870;-1.416;2022-10-13T04:06:29;33.58;;;16.88;;
28447;SDS011;15675;52.870;-1.416;2022-10-13T04:08:55;39.42;;;18.33;;
28447;SDS011;15675;52.870;-1.416;2022-10-13T04:11:21;44.85;;;19.25;;
28447;SDS011;15675;52.870;-1.416;2022-10-13T04:13:47;46.72;;;20.15;;
28447;SDS011;15675;52.870;-1.416;2022-10-13T04:16:14;45.42;;;19.83;;
28447;SDS011;15675;52.870;-1.416;2022-10-13T04:18:42;48.13;;;21.63;;
28447;SDS011;15675;52.870;-1.416;2022-10-13T04:21:09;44.75;;;21.88;;
28447;SDS011;15675;52.870;-1.416;2022-10-13T04:23:36;46.85;;;21.45;;
28447;SDS011;15675;52.870;-1.416;2022-10-13T04:26:02;49.20;;;21.73;;
28447;SDS011;15675;52.870;-1.416;2022-10-13T04:28:28;44.72;;;21.80;;
28447;SDS011;15675;52.870;-1.416;2022-10-13T04:30:57;49.53;;;22.15;;
28447;SDS011;15675;52.870;-1.416;2022-10-13T04:33:23;44.58;;;21.00;;
28447;SDS011;15675;52.870;-1.416;2022-10-13T04:35:49;47.03;;;22.20;;
28447;SDS011;15675;52.870;-1.416;2022-10-13T04:38:14;45.42;;;23.33;;
28447;SDS011;15675;52.870;-1.416;2022-10-13T04:40:40;52.50;;;22.77;;
28447;SDS011;15675;52.870;-1.416;2022-10-13T04:43:05;46.75;;;22.42;;
28447;SDS011;15675;52.870;-1.416;2022-10-13T04:45:31;44.45;;;21.50;;
28447;SDS011;15675;52.870;-1.416;2022-10-13T04:47:56;34.65;;;20.20;;
28447;SDS011;15675;52.870;-1.416;2022-10-13T04:50:22;42.72;;;21.08;;
28447;SDS011;15675;52.870;-1.416;2022-10-13T04:52:47;41.63;;;20.67;;
28447;SDS011;15675;52.870;-1.416;2022-10-13T04:55:13;46.25;;;20.60;;
28447;SDS011;15675;52.870;-1.416;2022-10-13T04:57:39;37.15;;;19.77;;
28447;SDS011;15675;52.870;-1.416;2022-10-13T05:00:04;40.63;;;19.13;;
28447;SDS011;15675;52.870;-1.416;2022-10-13T05:02:33;42.83;;;19.52;;
28447;SDS011;15675;52.870;-1.416;2022-10-13T05:04:59;40.53;;;18.50;;
28447;SDS011;15675;52.870;-1.416;2022-10-13T05:07:24;32.50;;;17.35;;
28447;SDS011;15675;52.870;-1.416;2022-10-13T05:09:50;39.40;;;18.30;;
28447;SDS011;15675;52.870;-1.416;2022-10-13T05:12:16;35.45;;;16.80;;
28447;SDS011;15675;52.870;-1.416;2022-10-13T05:14:41;37.60;;;17.45;;
28447;SDS011;15675;52.870;-1.416;2022-10-13T05:17:07;37.22;;;17.88;;
28447;SDS011;15675;52.870;-1.416;2022-10-13T05:19:32;37.80;;;16.80;;
28447;SDS011;15675;52.870;-1.416;2022-10-13T05:21:58;33.92;;;17.08;;
28447;SDS011;15675;52.870;-1.416;2022-10-13T05:24:23;28.45;;;16.33;;
28447;SDS011;15675;52.870;-1.416;2022-10-13T05:27:01;41.72;;;17.75;;
28447;SDS011;15675;52.870;-1.416;2022-10-13T05:29:31;33.20;;;16.17;;
28447;SDS011;15675;52.870;-1.416;2022-10-13T05:31:57;34.70;;;16.23;;
28447;SDS011;15675;52.870;-1.416;2022-10-13T05:34:22;30.58;;;15.68;;
28447;SDS011;15675;52.870;-1.416;2022-10-13T05:36:48;28.48;;;15.48;;
28447;SDS011;15675;52.870;-1.416;2022-10-13T05:39:13;29.95;;;16.40;;
28447;SDS011;15675;52.870;-1.416;2022-10-13T05:41:38;32.85;;;16.20;;
28447;SDS011;15675;52.870;-1.416;2022-10-13T05:44:08;28.38;;;14.73;;
28447;SDS011;15675;52.870;-1.416;2022-10-13T05:46:34;27.67;;;14.45;;
28447;SDS011;15675;52.870;-1.416;2022-10-13T05:49:00;30.02;;;14.25;;
28447;SDS011;15675;52.870;-1.416;2022-10-13T05:54:25;25.05;;;13.77;;
28447;SDS011;15675;52.870;-1.416;2022-10-13T05:56:59;29.90;;;14.45;;
28447;SDS011;15675;52.870;-1.416;2022-10-13T05:59:29;26.42;;;14.63;;
28447;SDS011;15675;52.870;-1.416;2022-10-13T06:01:59;30.17;;;13.68;;
28447;SDS011;15675;52.870;-1.416;2022-10-13T06:04:29;26.58;;;14.07;;
28447;SDS011;15675;52.870;-1.416;2022-10-13T06:06:58;25.30;;;13.93;;
28447;SDS011;15675;52.870;-1.416;2022-10-13T06:09:25;29.58;;;14.25;;
28447;SDS011;15675;52.870;-1.416;2022-10-13T06:11:58;25.95;;;13.40;;
28447;SDS011;15675;52.870;-1.416;2022-10-13T06:14:24;29.15;;;14.77;;
28447;SDS011;15675;52.870;-1.416;2022-10-13T06:16:49;31.80;;;15.00;;
28447;SDS011;15675;52.870;-1.416;2022-10-13T06:19:15;27.98;;;12.68;;
28447;SDS011;15675;52.870;-1.416;2022-10-13T06:21:41;27.05;;;12.88;;
28447;SDS011;15675;52.870;-1.416;2022-10-13T06:24:06;27.85;;;14.50;;
28447;SDS011;15675;52.870;-1.416;2022-10-13T06:26:32;30.65;;;13.20;;
28447;SDS011;15675;52.870;-1.416;2022-10-13T06:28:57;25.42;;;12.07;;
28447;SDS011;15675;52.870;-1.416;2022-10-13T06:31:23;28.90;;;12.55;;
28447;SDS011;15675;52.870;-1.416;2022-10-13T06:33:48;30.17;;;12.48;;
28447;SDS011;15675;52.870;-1.416;2022-10-13T06:36:14;21.83;;;13.05;;
28447;SDS011;15675;52.870;-1.416;2022-10-13T06:38:40;23.52;;;10.93;;
28447;SDS011;15675;52.870;-1.416;2022-10-13T06:41:05;19.30;;;11.00;;
28447;SDS011;15675;52.870;-1.416;2022-10-13T06:43:31;22.85;;;11.05;;
28447;SDS011;15675;52.870;-1.416;2022-10-13T06:45:58;31.92;;;10.52;;
28447;SDS011;15675;52.870;-1.416;2022-10-13T06:48:24;22.58;;;10.45;;
28447;SDS011;15675;52.870;-1.416;2022-10-13T06:50:51;19.48;;;9.40;;
28447;SDS011;15675;52.870;-1.416;2022-10-13T06:53:17;20.58;;;9.48;;
28447;SDS011;15675;52.870;-1.416;2022-10-13T06:55:43;17.42;;;8.75;;
28447;SDS011;15675;52.870;-1.416;2022-10-13T06:58:09;24.13;;;9.82;;
28447;SDS011;15675;52.870;-1.416;2022-10-13T07:00:35;19.60;;;9.32;;
28447;SDS011;15675;52.870;-1.416;2022-10-13T07:03:01;17.63;;;8.30;;
28447;SDS011;15675;52.870;-1.416;2022-10-13T07:05:26;20.67;;;8.38;;
28447;SDS011;15675;52.870;-1.416;2022-10-13T07:07:52;20.63;;;8.63;;
28447;SDS011;15675;52.870;-1.416;2022-10-13T07:10:20;19.48;;;8.98;;
28447;SDS011;15675;52.870;-1.416;2022-10-13T07:12:45;16.08;;;8.25;;
28447;SDS011;15675;52.870;-1.416;2022-10-13T07:15:11;20.58;;;9.20;;
28447;SDS011;15675;52.870;-1.416;2022-10-13T07:17:37;17.48;;;8.70;;
28447;SDS011;15675;52.870;-1.416;2022-10-13T07:20:03;20.23;;;7.93;;
28447;SDS011;15675;52.870;-1.416;2022-10-13T07:22:29;20.38;;;7.88;;
28447;SDS011;15675;52.870;-1.416;2022-10-13T07:24:55;19.95;;;8.27;;
28447;SDS011;15675;52.870;-1.416;2022-10-13T07:27:20;17.85;;;7.43;;
28447;SDS011;15675;52.870;-1.416;2022-10-13T07:29:46;25.30;;;7.35;;
28447;SDS011;15675;52.870;-1.416;2022-10-13T07:32:12;23.98;;;7.60;;
28447;SDS011;15675;52.870;-1.416;2022-10-13T07:34:37;18.20;;;6.78;;
28447;SDS011;15675;52.870;-1.416;2022-10-13T07:37:03;15.70;;;6.20;;
28447;SDS011;15675;52.870;-1.416;2022-10-13T07:39:28;18.80;;;7.05;;
28447;SDS011;15675;52.870;-1.416;2022-10-13T07:41:54;21.08;;;7.32;;
28447;SDS011;15675;52.870;-1.416;2022-10-13T07:44:19;21.23;;;6.22;;
28447;SDS011;15675;52.870;-1.416;2022-10-13T07:46:44;14.60;;;5.40;;
28447;SDS011;15675;52.870;-1.416;2022-10-13T07:49:10;13.95;;;5.13;;
28447;SDS011;15675;52.870;-1.416;2022-10-13T07:51:35;14.65;;;5.93;;
28447;SDS011;15675;52.870;-1.416;2022-10-13T07:54:01;14.35;;;5.60;;
28447;SDS011;15675;52.870;-1.416;2022-10-13T07:56:26;20.17;;;6.05;;
28447;SDS011;15675;52.870;-1.416;2022-10-13T07:58:52;17.65;;;5.60;;
28447;SDS011;15675;52.870;-1.416;2022-10-13T08:01:17;14.40;;;5.25;;
28447;SDS011;15675;52.870;-1.416;2022-10-13T08:03:43;16.88;;;5.05;;
28447;SDS011;15675;52.870;-1.416;2022-10-13T08:06:10;17.55;;;5.28;;
28447;SDS011;15675;52.870;-1.416;2022-10-13T08:08:35;21.85;;;5.63;;
28447;SDS011;15675;52.870;-1.416;2022-10-13T08:11:05;10.90;;;4.72;;
28447;SDS011;15675;52.870;-1.416;2022-10-13T08:13:33;18.20;;;5.93;;
28447;SDS011;15675;52.870;-1.416;2022-10-13T08:16:00;16.83;;;4.97;;
28447;SDS011;15675;52.870;-1.416;2022-10-13T08:18:26;12.10;;;4.25;;
28447;SDS011;15675;52.870;-1.416;2022-10-13T08:20:52;12.35;;;4.55;;
28447;SDS011;15675;52.870;-1.416;2022-10-13T08:23:18;16.70;;;5.90;;
28447;SDS011;15675;52.870;-1.416;2022-10-13T08:25:44;16.15;;;4.93;;
28447;SDS011;15675;52.870;-1.416;2022-10-13T08:28:19;12.57;;;4.70;;
28447;SDS011;15675;52.870;-1.416;2022-10-13T08:30:47;14.65;;;4.68;;
28447;SDS011;15675;52.870;-1.416;2022-10-13T08:33:14;14.82;;;4.60;;
28447;SDS011;15675;52.870;-1.416;2022-10-13T08:35:40;16.98;;;4.18;;
28447;SDS011;15675;52.870;-1.416;2022-10-13T08:38:07;20.25;;;4.05;;
28447;SDS011;15675;52.870;-1.416;2022-10-13T08:40:32;9.77;;;4.20;;
28447;SDS011;15675;52.870;-1.416;2022-10-13T08:42:58;12.95;;;3.67;;
28447;SDS011;15675;52.870;-1.416;2022-10-13T08:45:25;17.52;;;4.68;;
28447;SDS011;15675;52.870;-1.416;2022-10-13T08:47:54;17.63;;;3.83;;
28447;SDS011;15675;52.870;-1.416;2022-10-13T08:50:35;12.63;;;3.30;;
28447;SDS011;15675;52.870;-1.416;2022-10-13T08:56:08;14.38;;;3.53;;
28447;SDS011;15675;52.870;-1.416;2022-10-13T08:58:39;13.63;;;3.88;;
28447;SDS011;15675;52.870;-1.416;2022-10-13T09:01:20;16.13;;;3.97;;
28447;SDS011;15675;52.870;-1.416;2022-10-13T09:03:53;10.25;;;3.53;;
28447;SDS011;15675;52.870;-1.416;2022-10-13T09:06:33;13.10;;;3.78;;
28447;SDS011;15675;52.870;-1.416;2022-10-13T09:11:30;13.90;;;2.83;;
28447;SDS011;15675;52.870;-1.416;2022-10-13T09:13:59;12.15;;;3.03;;
28447;SDS011;15675;52.870;-1.416;2022-10-13T09:16:28;14.15;;;3.45;;
28447;SDS011;15675;52.870;-1.416;2022-10-13T09:19:16;15.18;;;3.15;;
28447;SDS011;15675;52.870;-1.416;2022-10-13T09:21:49;15.32;;;3.38;;
28447;SDS011;15675;52.870;-1.416;2022-10-13T09:24:18;18.77;;;2.97;;
28447;SDS011;15675;52.870;-1.416;2022-10-13T09:26:46;6.88;;;2.70;;
28447;SDS011;15675;52.870;-1.416;2022-10-13T09:29:18;13.65;;;3.55;;
28447;SDS011;15675;52.870;-1.416;2022-10-13T09:31:48;21.95;;;3.17;;
28447;SDS011;15675;52.870;-1.416;2022-10-13T09:36:59;18.60;;;3.30;;
28447;SDS011;15675;52.870;-1.416;2022-10-13T09:39:25;15.98;;;3.50;;
28447;SDS011;15675;52.870;-1.416;2022-10-13T09:41:51;11.38;;;2.75;;
28447;SDS011;15675;52.870;-1.416;2022-10-13T09:44:32;10.23;;;2.53;;
28447;SDS011;15675;52.870;-1.416;2022-10-13T09:47:00;12.20;;;2.90;;
28447;SDS011;15675;52.870;-1.416;2022-10-13T09:49:28;14.95;;;2.50;;
28447;SDS011;15675;52.870;-1.416;2022-10-13T09:51:59;11.38;;;2.50;;
28447;SDS011;15675;52.870;-1.416;2022-10-13T09:54:49;12.27;;;2.45;;
28447;SDS011;15675;52.870;-1.416;2022-10-13T09:57:29;16.27;;;3.08;;
28447;SDS011;15675;52.870;-1.416;2022-10-13T10:05:25;10.95;;;2.42;;
28447;SDS011;15675;52.870;-1.416;2022-10-13T10:08:25;13.38;;;3.00;;
28447;SDS011;15675;52.870;-1.416;2022-10-13T10:11:02;17.55;;;2.90;;
28447;SDS011;15675;52.870;-1.416;2022-10-13T10:13:30;8.75;;;2.45;;
28447;SDS011;15675;52.870;-1.416;2022-10-13T10:18:45;25.27;;;5.53;;
28447;SDS011;15675;52.870;-1.416;2022-10-13T10:26:54;9.40;;;3.58;;
28447;SDS011;15675;52.870;-1.416;2022-10-13T10:32:20;8.27;;;2.70;;
28447;SDS011;15675;52.870;-1.416;2022-10-13T10:43:13;13.63;;;3.67;;
28447;SDS011;15675;52.870;-1.416;2022-10-13T10:46:01;9.80;;;2.60;;
28447;SDS011;15675;52.870;-1.416;2022-10-13T10:48:45;9.57;;;2.22;;
28447;SDS011;15675;52.870;-1.416;2022-10-13T10:51:12;13.85;;;2.25;;
28447;SDS011;15675;52.870;-1.416;2022-10-13T10:58:52;12.32;;;2.95;;
28447;SDS011;15675;52.870;-1.416;2022-10-13T11:01:48;12.15;;;2.42;;
28447;SDS011;15675;52.870;-1.416;2022-10-13T11:04:39;8.10;;;2.72;;
28447;SDS011;15675;52.870;-1.416;2022-10-13T11:14:44;9.02;;;2.13;;
28447;SDS011;15675;52.870;-1.416;2022-10-13T11:17:34;8.43;;;1.98;;
28447;SDS011;15675;52.870;-1.416;2022-10-13T11:25:42;10.75;;;2.20;;
28447;SDS011;15675;52.870;-1.416;2022-10-13T11:34:02;8.07;;;1.90;;
28447;SDS011;15675;52.870;-1.416;2022-10-13T11:41:50;9.18;;;2.40;;
28447;SDS011;15675;52.870;-1.416;2022-10-13T11:50:28;12.05;;;2.30;;
28447;SDS011;15675;52.870;-1.416;2022-10-13T11:55:53;13.70;;;2.88;;
28447;SDS011;15675;52.870;-1.416;2022-10-13T11:58:29;7.03;;;2.03;;
28447;SDS011;15675;52.870;-1.416;2022-10-13T12:01:01;8.02;;;1.75;;
28447;SDS011;15675;52.870;-1.416;2022-10-13T12:06:02;8.20;;;2.00;;
28447;SDS011;15675;52.870;-1.416;2022-10-13T12:08:46;9.73;;;2.20;;
28447;SDS011;15675;52.870;-1.416;2022-10-13T12:11:21;10.90;;;2.30;;
28447;SDS011;15675;52.870;-1.416;2022-10-13T12:13:50;8.45;;;2.00;;
28447;SDS011;15675;52.870;-1.416;2022-10-13T12:16:16;7.40;;;2.40;;
28447;SDS011;15675;52.870;-1.416;2022-10-13T12:18:42;9.60;;;1.85;;
28447;SDS011;15675;52.870;-1.416;2022-10-13T12:21:09;9.10;;;2.97;;
28447;SDS011;15675;52.870;-1.416;2022-10-13T12:23:35;12.57;;;2.65;;
28447;SDS011;15675;52.870;-1.416;2022-10-13T12:26:00;13.20;;;2.95;;
28447;SDS011;15675;52.870;-1.416;2022-10-13T12:28:27;11.32;;;2.85;;
28447;SDS011;15675;52.870;-1.416;2022-10-13T12:30:56;11.98;;;2.85;;
28447;SDS011;15675;52.870;-1.416;2022-10-13T12:35:51;8.32;;;2.45;;
28447;SDS011;15675;52.870;-1.416;2022-10-13T12:38:17;12.50;;;2.40;;
28447;SDS011;15675;52.870;-1.416;2022-10-13T12:40:48;13.80;;;2.58;;
28447;SDS011;15675;52.870;-1.416;2022-10-13T12:43:17;17.48;;;2.50;;
28447;SDS011;15675;52.870;-1.416;2022-10-13T12:45:46;13.18;;;2.40;;
28447;SDS011;15675;52.870;-1.416;2022-10-13T12:48:28;8.80;;;2.65;;
28447;SDS011;15675;52.870;-1.416;2022-10-13T12:51:14;14.43;;;2.95;;
28447;SDS011;15675;52.870;-1.416;2022-10-13T12:53:43;8.68;;;2.65;;
28447;SDS011;15675;52.870;-1.416;2022-10-13T12:58:56;11.38;;;2.50;;
28447;SDS011;15675;52.870;-1.416;2022-10-13T13:03:59;9.32;;;2.42;;
28447;SDS011;15675;52.870;-1.416;2022-10-13T13:06:30;15.10;;;2.95;;
28447;SDS011;15675;52.870;-1.416;2022-10-13T13:11:33;10.07;;;2.28;;
28447;SDS011;15675;52.870;-1.416;2022-10-13T13:14:43;9.65;;;2.45;;
28447;SDS011;15675;52.870;-1.416;2022-10-13T13:17:02;13.88;;;2.60;;
28447;SDS011;15675;52.870;-1.416;2022-10-13T13:19:31;8.77;;;2.30;;
28447;SDS011;15675;52.870;-1.416;2022-10-13T13:21:58;11.40;;;2.78;;
28447;SDS011;15675;52.870;-1.416;2022-10-13T13:24:24;13.63;;;2.78;;
28447;SDS011;15675;52.870;-1.416;2022-10-13T13:26:50;14.10;;;3.45;;
28447;SDS011;15675;52.870;-1.416;2022-10-13T13:29:15;10.65;;;2.65;;
28447;SDS011;15675;52.870;-1.416;2022-10-13T13:31:41;12.50;;;3.10;;
28447;SDS011;15675;52.870;-1.416;2022-10-13T13:34:06;15.32;;;2.78;;
28447;SDS011;15675;52.870;-1.416;2022-10-13T13:36:32;13.23;;;3.42;;
28447;SDS011;15675;52.870;-1.416;2022-10-13T13:38:57;12.02;;;3.25;;
28447;SDS011;15675;52.870;-1.416;2022-10-13T13:41:23;7.80;;;2.45;;
28447;SDS011;15675;52.870;-1.416;2022-10-13T13:43:52;14.27;;;2.50;;
28447;SDS011;15675;52.870;-1.416;2022-10-13T13:48:43;7.88;;;2.22;;
28447;SDS011;15675;52.870;-1.416;2022-10-13T13:51:08;13.95;;;2.97;;
28447;SDS011;15675;52.870;-1.416;2022-10-13T13:53:34;13.10;;;2.72;;
28447;SDS011;15675;52.870;-1.416;2022-10-13T13:56:00;12.15;;;2.80;;
28447;SDS011;15675;52.870;-1.416;2022-10-13T13:58:26;10.52;;;2.42;;
28447;SDS011;15675;52.870;-1.416;2022-10-13T14:00:51;12.65;;;2.80;;
28447;SDS011;15675;52.870;-1.416;2022-10-13T14:03:17;9.68;;;2.60;;
28447;SDS011;15675;52.870;-1.416;2022-10-13T14:05:42;14.45;;;3.05;;
28447;SDS011;15675;52.870;-1.416;2022-10-13T14:08:08;12.65;;;2.70;;
28447;SDS011;15675;52.870;-1.416;2022-10-13T14:10:33;16.33;;;2.80;;
28447;SDS011;15675;52.870;-1.416;2022-10-13T14:12:59;16.83;;;2.35;;
28447;SDS011;15675;52.870;-1.416;2022-10-13T14:15:25;10.45;;;2.28;;
28447;SDS011;15675;52.870;-1.416;2022-10-13T14:17:52;9.50;;;2.40;;
28447;SDS011;15675;52.870;-1.416;2022-10-13T14:20:18;11.60;;;2.60;;
28447;SDS011;15675;52.870;-1.416;2022-10-13T14:22:44;9.90;;;2.38;;
28447;SDS011;15675;52.870;-1.416;2022-10-13T14:25:10;12.77;;;2.65;;
28447;SDS011;15675;52.870;-1.416;2022-10-13T14:27:35;10.57;;;2.88;;
28447;SDS011;15675;52.870;-1.416;2022-10-13T14:30:02;10.07;;;2.60;;
28447;SDS011;15675;52.870;-1.416;2022-10-13T14:32:29;9.90;;;2.70;;
28447;SDS011;15675;52.870;-1.416;2022-10-13T14:34:54;11.13;;;2.83;;
28447;SDS011;15675;52.870;-1.416;2022-10-13T14:37:20;12.93;;;2.92;;
28447;SDS011;15675;52.870;-1.416;2022-10-13T14:39:45;11.35;;;2.17;;
28447;SDS011;15675;52.870;-1.416;2022-10-13T14:42:10;9.40;;;2.00;;
28447;SDS011;15675;52.870;-1.416;2022-10-13T14:44:36;10.82;;;2.65;;
28447;SDS011;15675;52.870;-1.416;2022-10-13T14:47:01;10.60;;;2.72;;
28447;SDS011;15675;52.870;-1.416;2022-10-13T14:49:27;11.80;;;2.92;;
28447;SDS011;15675;52.870;-1.416;2022-10-13T14:51:52;10.60;;;2.38;;
28447;SDS011;15675;52.870;-1.416;2022-10-13T14:54:18;11.88;;;2.55;;
28447;SDS011;15675;52.870;-1.416;2022-10-13T14:56:43;11.98;;;3.38;;
28447;SDS011;15675;52.870;-1.416;2022-10-13T14:59:09;10.38;;;2.50;;
28447;SDS011;15675;52.870;-1.416;2022-10-13T15:01:36;11.80;;;2.83;;
28447;SDS011;15675;52.870;-1.416;2022-10-13T15:04:02;11.65;;;2.88;;
28447;SDS011;15675;52.870;-1.416;2022-10-13T15:06:28;8.75;;;2.92;;
28447;SDS011;15675;52.870;-1.416;2022-10-13T15:08:55;14.50;;;3.00;;
28447;SDS011;15675;52.870;-1.416;2022-10-13T15:11:21;8.80;;;2.65;;
28447;SDS011;15675;52.870;-1.416;2022-10-13T15:13:47;9.50;;;2.67;;
28447;SDS011;15675;52.870;-1.416;2022-10-13T15:16:19;8.32;;;2.70;;
28447;SDS011;15675;52.870;-1.416;2022-10-13T15:18:47;12.02;;;3.42;;
28447;SDS011;15675;52.870;-1.416;2022-10-13T15:21:13;10.52;;;2.60;;
28447;SDS011;15675;52.870;-1.416;2022-10-13T15:23:39;6.78;;;2.42;;
28447;SDS011;15675;52.870;-1.416;2022-10-13T15:26:04;9.52;;;3.33;;
28447;SDS011;15675;52.870;-1.416;2022-10-13T15:28:41;10.45;;;2.42;;
28447;SDS011;15675;52.870;-1.416;2022-10-13T15:31:08;12.77;;;2.78;;
28447;SDS011;15675;52.870;-1.416;2022-10-13T15:33:35;9.65;;;2.55;;
28447;SDS011;15675;52.870;-1.416;2022-10-13T15:36:00;7.75;;;2.67;;
28447;SDS011;15675;52.870;-1.416;2022-10-13T15:38:27;19.15;;;3.38;;
28447;SDS011;15675;52.870;-1.416;2022-10-13T15:40:57;14.45;;;3.10;;
28447;SDS011;15675;52.870;-1.416;2022-10-13T15:43:23;10.73;;;2.50;;
28447;SDS011;15675;52.870;-1.416;2022-10-13T15:45:52;11.00;;;2.70;;
28447;SDS011;15675;52.870;-1.416;2022-10-13T15:48:19;11.30;;;2.45;;
28447;SDS011;15675;52.870;-1.416;2022-10-13T15:50:45;11.85;;;2.42;;
28447;SDS011;15675;52.870;-1.416;2022-10-13T15:53:10;12.32;;;3.17;;
28447;SDS011;15675;52.870;-1.416;2022-10-13T15:55:37;7.38;;;2.40;;
28447;SDS011;15675;52.870;-1.416;2022-10-13T15:58:04;8.23;;;2.45;;
28447;SDS011;15675;52.870;-1.416;2022-10-13T16:00:29;9.00;;;2.90;;
28447;SDS011;15675;52.870;-1.416;2022-10-13T16:02:55;11.57;;;2.40;;
28447;SDS011;15675;52.870;-1.416;2022-10-13T16:05:20;7.10;;;2.90;;
28447;SDS011;15675;52.870;-1.416;2022-10-13T16:07:46;17.17;;;4.18;;
28447;SDS011;15675;52.870;-1.416;2022-10-13T16:10:12;9.25;;;2.35;;
28447;SDS011;15675;52.870;-1.416;2022-10-13T16:12:39;9.35;;;2.67;;
28447;SDS011;15675;52.870;-1.416;2022-10-13T16:15:06;7.28;;;2.38;;
28447;SDS011;15675;52.870;-1.416;2022-10-13T16:17:32;12.95;;;2.42;;
28447;SDS011;15675;52.870;-1.416;2022-10-13T16:19:58;12.60;;;3.10;;